AUA154 LOWS-LOWI

Flight info

Callsign AUA154
Flight time 0h 31m
Altitude 12000
Route RTT RTT1B
Aircraft A319/M-SDE3FGHIRWY/LB1

Departure

Time 2026-05-06 18:44
Airport Salzburg Airport (LOWS)

Arrival

Time 2026-05-06 19:16
Airport Innsbruck Airport (LOWI)
Time Latitude Longitude Altitude Speed Heading
2026-05-06 18:34 47.79069 13.00183 1420 ft 0 kts 102°
2026-05-06 18:39 47.79068 13.00187 1420 ft 1 kts 108°
2026-05-06 18:40 47.79055 13.00200 1420 ft 0 kts 169°
2026-05-06 18:40 47.79043 13.00183 1420 ft 6 kts 231°
2026-05-06 18:40 47.79005 13.00146 1420 ft 8 kts 189°
2026-05-06 18:40 47.78962 13.00190 1420 ft 9 kts 114°
2026-05-06 18:41 47.78956 13.00288 1420 ft 11 kts 91°
2026-05-06 18:41 47.78919 13.00387 1420 ft 13 kts 151°
2026-05-06 18:41 47.78834 13.00443 1420 ft 13 kts 157°
2026-05-06 18:41 47.78755 13.00493 1420 ft 12 kts 157°
2026-05-06 18:42 47.78684 13.00538 1420 ft 10 kts 157°
2026-05-06 18:42 47.78613 13.00583 1420 ft 13 kts 157°
2026-05-06 18:42 47.78524 13.00639 1420 ft 15 kts 157°
2026-05-06 18:42 47.78417 13.00707 1420 ft 17 kts 156°
2026-05-06 18:43 47.78309 13.00775 1422 ft 16 kts 157°
2026-05-06 18:43 47.78214 13.00855 1422 ft 15 kts 138°
2026-05-06 18:43 47.78188 13.00993 1422 ft 15 kts 69°
2026-05-06 18:43 47.78260 13.01067 1422 ft 13 kts 347°
2026-05-06 18:44 47.78382 13.00992 1418 ft 35 kts 337°
2026-05-06 18:44 47.78847 13.00697 1420 ft 107 kts 337°
2026-05-06 18:44 47.79687 13.00154 1628 ft 141 kts 330°
2026-05-06 18:44 47.80570 12.99578 2334 ft 137 kts 332°
2026-05-06 18:45 47.81475 12.98995 2758 ft 153 kts 329°
2026-05-06 18:45 47.82403 12.98086 3030 ft 168 kts 307°
2026-05-06 18:45 47.83069 12.96543 3271 ft 188 kts 297°
2026-05-06 18:45 47.83757 12.94761 3532 ft 209 kts 297°
2026-05-06 18:46 47.84511 12.92800 3932 ft 227 kts 297°
2026-05-06 18:46 47.85331 12.90677 4338 ft 244 kts 297°
2026-05-06 18:46 47.86187 12.88463 4996 ft 249 kts 297°
2026-05-06 18:46 47.87058 12.86207 5636 ft 254 kts 297°
2026-05-06 18:47 47.87949 12.83898 6255 ft 260 kts 297°
2026-05-06 18:47 47.88864 12.81527 7055 ft 266 kts 296°
2026-05-06 18:47 47.89746 12.79079 7997 ft 269 kts 288°
2026-05-06 18:47 47.90177 12.76378 8920 ft 269 kts 270°
2026-05-06 18:48 47.90032 12.73608 9874 ft 268 kts 252°
2026-05-06 18:48 47.89337 12.71004 10533 ft 279 kts 237°
2026-05-06 18:48 47.88092 12.68647 10880 ft 302 kts 227°
2026-05-06 18:48 47.86637 12.66225 11162 ft 325 kts 227°
2026-05-06 18:49 47.85088 12.63652 11627 ft 339 kts 227°
2026-05-06 18:49 47.83508 12.61019 11815 ft 342 kts 227°
2026-05-06 18:49 47.81877 12.58292 11862 ft 365 kts 227°
2026-05-06 18:49 47.80166 12.55426 11855 ft 374 kts 228°
2026-05-06 18:50 47.78432 12.52519 11857 ft 377 kts 228°
2026-05-06 18:50 47.76691 12.49605 11859 ft 377 kts 227°
2026-05-06 18:50 47.74951 12.46697 11855 ft 377 kts 227°
2026-05-06 18:50 47.73214 12.43794 11859 ft 376 kts 227°
2026-05-06 18:51 47.71475 12.40893 11852 ft 376 kts 227°
2026-05-06 18:51 47.69734 12.37990 11854 ft 376 kts 227°
2026-05-06 18:51 47.67999 12.35097 11852 ft 375 kts 227°
2026-05-06 18:51 47.66257 12.32198 11853 ft 376 kts 227°
2026-05-06 18:52 47.64512 12.29302 11845 ft 376 kts 227°
2026-05-06 18:52 47.62804 12.26474 11840 ft 356 kts 227°
2026-05-06 18:52 47.61204 12.23829 11845 ft 333 kts 227°
2026-05-06 18:52 47.59724 12.21388 11847 ft 313 kts 227°
2026-05-06 18:53 47.58309 12.19057 11844 ft 296 kts 227°
2026-05-06 18:53 47.56977 12.16853 11830 ft 279 kts 228°
2026-05-06 18:53 47.55986 12.14431 11841 ft 276 kts 250°
2026-05-06 18:53 47.55725 12.11606 11840 ft 279 kts 263°
2026-05-06 18:54 47.55649 12.08730 11839 ft 280 kts 264°
2026-05-06 18:54 47.55587 12.05855 11834 ft 280 kts 264°
2026-05-06 18:54 47.55525 12.02975 11838 ft 280 kts 264°
2026-05-06 18:54 47.55464 12.00100 11839 ft 280 kts 264°
2026-05-06 18:55 47.55407 11.97222 11841 ft 280 kts 264°
2026-05-06 18:55 47.55350 11.94345 11840 ft 280 kts 264°
2026-05-06 18:55 47.55291 11.91461 11842 ft 280 kts 264°
2026-05-06 18:55 47.55233 11.88580 11844 ft 280 kts 264°
2026-05-06 18:56 47.55174 11.85697 11848 ft 281 kts 264°
2026-05-06 18:56 47.55114 11.82809 11851 ft 281 kts 264°
2026-05-06 18:56 47.55052 11.79922 11845 ft 280 kts 264°
2026-05-06 18:56 47.54994 11.77050 11860 ft 279 kts 264°
2026-05-06 18:57 47.54926 11.74169 11851 ft 281 kts 264°
2026-05-06 18:57 47.54857 11.71274 11845 ft 282 kts 264°
2026-05-06 18:57 47.54787 11.68372 11841 ft 283 kts 264°
2026-05-06 18:57 47.54715 11.65460 11837 ft 284 kts 264°
2026-05-06 18:58 47.54641 11.62540 11833 ft 284 kts 265°
2026-05-06 18:58 47.54563 11.59623 11832 ft 284 kts 264°
2026-05-06 18:58 47.54485 11.56700 11837 ft 285 kts 264°
2026-05-06 18:58 47.54408 11.53769 11839 ft 285 kts 264°
2026-05-06 18:59 47.54331 11.50843 11837 ft 283 kts 264°
2026-05-06 18:59 47.54256 11.47927 11837 ft 284 kts 264°
2026-05-06 18:59 47.54185 11.45014 11837 ft 283 kts 264°
2026-05-06 18:59 47.54111 11.42100 11839 ft 284 kts 264°
2026-05-06 19:00 47.54047 11.39186 11834 ft 283 kts 264°
2026-05-06 19:00 47.53981 11.36271 11838 ft 283 kts 264°
2026-05-06 19:00 47.53904 11.33355 11851 ft 284 kts 264°
2026-05-06 19:00 47.53850 11.31418 11851 ft 285 kts 264°
2026-05-06 19:01 47.53738 11.27502 11855 ft 285 kts 264°
2026-05-06 19:01 47.53652 11.24577 11862 ft 285 kts 264°
2026-05-06 19:01 47.53566 11.21643 11864 ft 286 kts 264°
2026-05-06 19:01 47.53479 11.18710 11864 ft 286 kts 264°
2026-05-06 19:02 47.53391 11.15769 11861 ft 285 kts 264°
2026-05-06 19:02 47.53302 11.12849 11560 ft 283 kts 264°
2026-05-06 19:02 47.53214 11.09937 11548 ft 284 kts 264°
2026-05-06 19:02 47.53124 11.07014 11558 ft 285 kts 264°
2026-05-06 19:03 47.53034 11.04089 11558 ft 285 kts 264°
2026-05-06 19:03 47.52943 11.01176 11557 ft 283 kts 264°
2026-05-06 19:03 47.52839 10.98072 11559 ft 321 kts 264°
2026-05-06 19:03 47.52712 10.94600 11544 ft 354 kts 264°
2026-05-06 19:04 47.52501 10.90845 11564 ft 378 kts 258°
2026-05-06 19:04 47.51591 10.87190 11555 ft 380 kts 238°
2026-05-06 19:04 47.49955 10.84229 11556 ft 361 kts 224°
2026-05-06 19:04 47.48247 10.81680 11559 ft 338 kts 224°
2026-05-06 19:05 47.46640 10.79286 11515 ft 319 kts 224°
2026-05-06 19:05 47.45125 10.77017 11370 ft 299 kts 224°
2026-05-06 19:05 47.44183 10.75610 11262 ft 285 kts 224°
2026-05-06 19:05 47.42810 10.73553 11082 ft 278 kts 224°
2026-05-06 19:06 47.41464 10.71525 10753 ft 276 kts 224°
2026-05-06 19:06 47.40135 10.69538 10648 ft 265 kts 221°
2026-05-06 19:06 47.38631 10.68167 10661 ft 248 kts 200°
2026-05-06 19:06 47.36987 10.67751 10657 ft 234 kts 179°
2026-05-06 19:07 47.35438 10.68217 10638 ft 225 kts 160°
2026-05-06 19:07 47.34112 10.69440 10645 ft 228 kts 141°
2026-05-06 19:07 47.33129 10.71289 10635 ft 231 kts 125°
2026-05-06 19:07 47.32275 10.73292 10639 ft 231 kts 126°
2026-05-06 19:08 47.31419 10.75294 10641 ft 230 kts 126°
2026-05-06 19:08 47.30600 10.77238 10636 ft 217 kts 124°
2026-05-06 19:08 47.29997 10.79242 10639 ft 214 kts 112°
2026-05-06 19:08 47.29660 10.81403 10487 ft 222 kts 101°
2026-05-06 19:09 47.29621 10.83681 10126 ft 228 kts 90°
2026-05-06 19:09 47.29719 10.86039 9751 ft 227 kts 90°
2026-05-06 19:09 47.29809 10.88355 9401 ft 226 kts 90°
2026-05-06 19:09 47.29897 10.90625 9091 ft 219 kts 89°
2026-05-06 19:10 47.29982 10.92813 8778 ft 215 kts 89°
2026-05-06 19:10 47.30066 10.94997 8484 ft 212 kts 90°
2026-05-06 19:10 47.30148 10.97155 8182 ft 210 kts 89°
2026-05-06 19:10 47.30227 10.99312 7823 ft 211 kts 88°
2026-05-06 19:11 47.30307 11.01466 7464 ft 210 kts 88°
2026-05-06 19:11 47.30387 11.03614 7115 ft 210 kts 88°
2026-05-06 19:11 47.30452 11.05754 6775 ft 208 kts 90°
2026-05-06 19:11 47.30333 11.07858 6504 ft 204 kts 99°
2026-05-06 19:12 47.29981 11.09859 6238 ft 201 kts 109°
2026-05-06 19:12 47.29490 11.11776 5940 ft 200 kts 111°
2026-05-06 19:12 47.28954 11.13658 5630 ft 199 kts 112°
2026-05-06 19:12 47.28396 11.15510 5302 ft 197 kts 114°
2026-05-06 19:13 47.27840 11.17336 5006 ft 194 kts 115°
2026-05-06 19:13 47.27287 11.19128 4596 ft 190 kts 115°
2026-05-06 19:13 47.26707 11.20838 4216 ft 183 kts 117°
2026-05-06 19:13 47.26148 11.22443 3943 ft 166 kts 116°
2026-05-06 19:14 47.25640 11.23912 3622 ft 156 kts 115°
2026-05-06 19:14 47.25315 11.25358 3397 ft 144 kts 102°
2026-05-06 19:14 47.25229 11.26794 3095 ft 139 kts 85°
2026-05-06 19:14 47.25360 11.28188 2852 ft 136 kts 83°
2026-05-06 19:15 47.25517 11.29556 2609 ft 135 kts 83°
2026-05-06 19:15 47.25661 11.30908 2366 ft 134 kts 87°
2026-05-06 19:15 47.25797 11.32225 2140 ft 128 kts 89°
2026-05-06 19:15 47.25925 11.33487 1902 ft 123 kts 88°
2026-05-06 19:16 47.26036 11.34535 1904 ft 68 kts 79°
2026-05-06 19:16 47.26074 11.34888 1904 ft 22 kts 81°
2026-05-06 19:16 47.26097 11.35104 1896 ft 19 kts 81°
2026-05-06 19:16 47.26098 11.35241 1898 ft 12 kts 125°
2026-05-06 19:17 47.26017 11.35268 1897 ft 12 kts 171°
2026-05-06 19:17 47.25941 11.35287 1898 ft 10 kts 170°
2026-05-06 19:17 47.25898 11.35227 1901 ft 11 kts 264°
2026-05-06 19:17 47.25887 11.35136 1904 ft 6 kts 260°
2026-05-06 19:18 47.25883 11.35105 1904 ft 2 kts 253°
2026-05-06 19:18 47.25872 11.35092 1904 ft 2 kts 206°
2026-05-06 19:18 47.25860 11.35099 1904 ft 2 kts 152°
2026-05-06 19:18 47.25842 11.35107 1897 ft 3 kts 172°
2026-05-06 19:19 47.25823 11.35111 1904 ft 0 kts 171°